Latest Weather Observations for North Head

IDN60801

Issued at 2:52 am EDT Saturday 29 February 2020 (issued every 10 minutes, with the page automatically refreshed every 10 minutes)

About weather observations | Map of weather stations | Latest weather observations for NSW | Other Formats
Station Details ID: 066197 Name: NORTH HEAD Lat: -33.82 Lon: 151.30 Height: 90.0 m
Data from the previous 72 hours. | See also: Recent months at North Head
Date/Time
EDT
Temp
°C
App
Temp
°C
Dew
Point
°C
Rel
Hum
%
Delta-T
°C
Wind Press
QNH
hPa
Press
MSL
hPa
Rain since
9am
mm
Dir  Spd
km/h
Gust
km/h
Spd
kts
Gust
kts
29/02:30am - - - - - W 6 7 3 4 - - -
29/02:00am - - - - - W 4 7 2 4 - - -
29/01:30am - - - - - S 6 9 3 5 - - -
29/01:00am - - - - - SE 9 15 5 8 - - -
29/12:30am - - - - - SE 11 17 6 9 - - -
29/12:00am - - - - - SE 13 24 7 13 - - -
 
Date/Time
EDT
Temp
°C
App
Temp
°C
Dew
Point
°C
Rel
Hum
%
Delta-T
°C
Wind Press
QNH
hPa
Press
MSL
hPa
Rain since
9am
mm
Dir  Spd
km/h
Gust
km/h
Spd
kts
Gust
kts
28/11:30pm - - - - - SE 13 20 7 11 - - -
28/11:00pm - - - - - SSE 13 19 7 10 - - -
28/10:30pm - - - - - SSE 11 17 6 9 - - -
28/10:00pm - - - - - SSE 17 22 9 12 - - -
28/09:30pm - - - - - SSE 15 22 8 12 - - -
28/09:00pm - - - - - SSE 17 24 9 13 - - -
28/08:30pm - - - - - SSE 19 28 10 15 - - -
28/08:00pm - - - - - SSE 20 28 11 15 - - -
28/07:30pm - - - - - SSE 19 28 10 15 - - -
28/07:00pm - - - - - SSE 22 33 12 18 - - -
28/06:30pm - - - - - SSE 19 35 10 19 - - -
28/06:00pm - - - - - SSE 22 33 12 18 - - -
28/05:30pm - - - - - SSE 22 33 12 18 - - -
28/05:00pm - - - - - SSE 24 33 13 18 - - -
28/04:30pm - - - - - SSE 24 35 13 19 - - -
28/04:00pm - - - - - S 20 30 11 16 - - -
28/03:30pm - - - - - S 20 33 11 18 - - -
28/03:00pm - - - - - S 20 30 11 16 - - -
28/02:30pm - - - - - S 19 30 10 16 - - -
28/02:00pm - - - - - S 19 28 10 15 - - -
28/01:30pm - - - - - S 19 28 10 15 - - -
28/01:00pm - - - - - S 20 33 11 18 - - -
28/12:30pm - - - - - S 20 30 11 16 - - -
28/12:00pm - - - - - S 19 28 10 15 - - -
28/11:30am - - - - - SSW 15 26 8 14 - - -
28/11:00am - - - - - SSW 15 24 8 13 - - -
28/10:30am - - - - - S 19 28 10 15 - - -
28/10:00am - - - - - S 22 35 12 19 - - -
28/09:30am - - - - - S 20 28 11 15 - - -
28/09:00am - - - - - S 15 26 8 14 - - -
28/08:30am - - - - - S 13 20 7 11 - - -
28/08:00am - - - - - SSW 13 24 7 13 - - -
28/07:30am - - - - - SSW 11 19 6 10 - - -
28/07:00am - - - - - SW 11 17 6 9 - - -
28/06:30am - - - - - SW 11 17 6 9 - - -
28/06:00am - - - - - SW 17 28 9 15 - - -
28/05:30am - - - - - SW 11 17 6 9 - - -
28/05:00am - - - - - W 9 11 5 6 - - -
28/04:30am - - - - - W 9 15 5 8 - - -
28/04:00am - - - - - W 11 17 6 9 - - -
28/03:30am - - - - - W 13 17 7 9 - - -
28/03:00am - - - - - W 11 15 6 8 - - -
28/02:30am - - - - - W 9 13 5 7 - - -
28/02:00am - - - - - W 9 11 5 6 - - -
28/01:30am - - - - - NW 9 11 5 6 - - -
28/01:00am - - - - - WNW 9 11 5 6 - - -
28/12:30am - - - - - NNW 9 13 5 7 - - -
28/12:00am - - - - - N 11 17 6 9 - - -
 
Date/Time
EDT
Temp
°C
App
Temp
°C
Dew
Point
°C
Rel
Hum
%
Delta-T
°C
Wind Press
QNH
hPa
Press
MSL
hPa
Rain since
9am
mm
Dir  Spd
km/h
Gust
km/h
Spd
kts
Gust
kts
27/11:30pm - - - - - N 13 19 7 10 - - -
27/11:00pm - - - - - N 13 19 7 10 - - -
27/10:30pm - - - - - NNE 13 19 7 10 - - -
27/10:00pm - - - - - NNE 11 19 6 10 - - -
27/09:30pm - - - - - NNE 13 19 7 10 - - -
27/09:00pm - - - - - NNE 15 20 8 11 - - -
27/08:30pm - - - - - NNE 17 28 9 15 - - -
27/08:00pm - - - - - NE 20 30 11 16 - - -
27/07:30pm - - - - - NE 19 28 10 15 - - -
27/07:00pm - - - - - NE 19 28 10 15 - - -
27/06:30pm - - - - - ENE 17 26 9 14 - - -
27/06:00pm - - - - - ENE 15 24 8 13 - - -
27/05:30pm - - - - - ENE 15 22 8 12 - - -
27/05:00pm - - - - - ENE 15 26 8 14 - - -
27/04:30pm - - - - - ENE 15 26 8 14 - - -
27/04:00pm - - - - - NE 15 22 8 12 - - -
27/03:30pm - - - - - NE 17 28 9 15 - - -
27/03:00pm - - - - - NE 17 24 9 13 - - -
27/02:30pm - - - - - NE 11 20 6 11 - - -
27/02:00pm - - - - - NE 15 20 8 11 - - -
27/01:30pm - - - - - NE 13 17 7 9 - - -
27/01:00pm - - - - - E 11 15 6 8 - - -
27/12:30pm - - - - - ENE 6 9 3 5 - - -
27/12:00pm - - - - - E 4 9 2 5 - - -
27/11:30am - - - - - ENE 7 11 4 6 - - -
27/11:00am - - - - - SE 6 11 3 6 - - -
27/10:30am - - - - - SSE 6 7 3 4 - - -
27/10:00am - - - - - SSE 6 9 3 5 - - -
27/09:30am - - - - - SSE 7 9 4 5 - - -
27/09:00am - - - - - SSE 6 7 3 4 - - -
27/08:30am - - - - - S 7 11 4 6 - - -
27/08:00am - - - - - SE 9 15 5 8 - - -
27/07:30am - - - - - ESE 7 19 4 10 - - -
27/07:00am - - - - - SE 9 17 5 9 - - -
27/06:30am - - - - - S 15 24 8 13 - - -
27/06:00am - - - - - SSE 15 22 8 12 - - -
27/05:30am - - - - - SSE 15 24 8 13 - - -
27/05:00am - - - - - SSE 19 28 10 15 - - -
27/04:30am - - - - - SSE 20 32 11 17 - - -
27/04:00am - - - - - SSE 22 33 12 18 - - -
27/03:30am - - - - - SSE 22 33 12 18 - - -
27/03:00am - - - - - SSE 24 33 13 18 - - -
27/02:30am - - - - - S 24 39 13 21 - - -
27/02:00am - - - - - SSE 26 35 14 19 - - -
27/01:30am - - - - - S 26 39 14 21 - - -
27/01:00am - - - - - S 28 39 15 21 - - -
27/12:30am - - - - - SSE 28 41 15 22 - - -
27/12:00am - - - - - S 26 39 14 21 - - -
 
Date/Time
EDT
Temp
°C
App
Temp
°C
Dew
Point
°C
Rel
Hum
%
Delta-T
°C
Wind Press
QNH
hPa
Press
MSL
hPa
Rain since
9am
mm
Dir  Spd
km/h
Gust
km/h
Spd
kts
Gust
kts
26/11:46pm - - - - - SSE 30 48 16 26 - - -
26/11:30pm - - - - - S 33 48 18 26 - - -
26/11:00pm - - - - - S 33 52 18 28 - - -
26/10:30pm - - - - - S 35 54 19 29 - - -
26/10:00pm - - - - - S 39 56 21 30 - - -
26/09:30pm - - - - - S 46 69 25 37 - - -
26/09:00pm - - - - - S 44 70 24 38 - - -
26/08:42pm - - - - - S 43 74 23 40 - - -
26/08:30pm - - - - - S 35 56 19 30 - - -
26/08:00pm - - - - - SSW 28 48 15 26 - - -
26/07:44pm - - - - - SW 22 46 12 25 - - -
26/07:43pm - - - - - WSW 19 46 10 25 - - -
26/07:30pm - - - - - NNW 15 26 8 14 - - -
26/07:00pm - - - - - NNW 17 24 9 13 - - -
26/06:30pm - - - - - N 17 28 9 15 - - -
26/06:00pm - - - - - N 22 35 12 19 - - -
26/05:30pm - - - - - N 19 26 10 14 - - -
26/05:00pm - - - - - NNE 17 24 9 13 - - -
26/04:30pm - - - - - NNW 13 20 7 11 - - -
26/04:00pm - - - - - NNW 13 20 7 11 - - -
26/03:30pm - - - - - NW 19 32 10 17 - - -
26/03:00pm - - - - - WNW 15 22 8 12 - - -
26/02:30pm - - - - - W 13 19 7 10 - - -
26/02:00pm - - - - - W 24 39 13 21 - - -
26/01:30pm - - - - - WNW 15 24 8 13 - - -
26/01:00pm - - - - - NW 20 32 11 17 - - -
26/12:30pm - - - - - NW 19 28 10 15 - - -
26/12:00pm - - - - - NW 15 28 8 15 - - -
26/11:30am - - - - - NW 17 26 9 14 - - -
26/11:00am - - - - - NW 17 30 9 16 - - -
26/10:30am - - - - - NW 17 24 9 13 - - -
26/10:00am - - - - - NW 13 20 7 11 - - -
26/09:30am - - - - - NW 13 20 7 11 - - -
26/09:00am - - - - - NW 11 17 6 9 - - -
26/08:30am - - - - - NW 9 13 5 7 - - -
26/08:00am - - - - - NW 11 15 6 8 - - -
26/07:30am - - - - - NW 11 15 6 8 - - -
26/07:00am - - - - - NNW 9 13 5 7 - - -
26/06:30am - - - - - NNW 7 11 4 6 - - -
26/06:00am - - - - - NNW 7 9 4 5 - - -
26/05:30am - - - - - N 7 11 4 6 - - -
26/05:00am - - - - - N 11 17 6 9 - - -
26/04:30am - - - - - N 13 19 7 10 - - -
26/04:00am - - - - - NNE 17 24 9 13 - - -
26/03:30am - - - - - NNE 17 22 9 12 - - -
26/03:00am - - - - - NNE 15 20 8 11 - - -

Other formats

Comma delimited format used in spreadsheet applications
http://www.bom.gov.au/fwo/IDN60801/IDN60801.95768.axf

JavaScript Object Notation format (JSON) in row-major order
http://www.bom.gov.au/fwo/IDN60801/IDN60801.95768.json

Data quality

Most of these data are generated automatically and are frequently updated. Quality checks on data are not normally performed. It is possible for incorrect values to appear. Refer to information at About Latest Weather Observations and please check the disclaimer before using these data.